Time;durP1;ratioP1;P1;durP2;ratioP2;P2;SDS_P1;SDS_P2;PMS_P1;PMS_P2;Temp;Humidity;BMP_temperature;BMP_pressure;BME280_temperature;BME280_humidity;BME280_pressure;Samples;Min_cycle;Max_cycle;Signal;HPM_P1;HPM_P2
2022/05/30 00:00:16;;;;;;;;;;;13.30;99.90;;;;;;5115963;28;19912;-75
2022/05/30 00:02:42;;;;;;;;;;;13.30;99.90;;;;;;5116114;28;19907;-75
2022/05/30 00:05:10;;;;;;;;;;;13.30;99.90;;;;;;5116018;28;20274;-75
2022/05/30 00:07:37;;;;;;;;;;;13.30;99.90;;;;;;5115702;28;19908;-75
2022/05/30 00:10:05;;;;;;;;;;;13.30;99.90;;;;;;5116013;28;19907;-75
2022/05/30 00:12:32;;;;;;;;;;;13.40;99.90;;;;;;5115812;28;20008;-75
2022/05/30 00:14:58;;;;;;;;;;;13.40;99.90;;;;;;5115792;28;19997;-75
2022/05/30 00:17:25;;;;;;;;;;;13.40;99.90;;;;;;5115677;28;19915;-75
2022/05/30 00:19:52;;;;;;;;;;;13.30;99.90;;;;;;5115636;28;20355;-75
2022/05/30 00:22:19;;;;;;;;;;;13.40;99.90;;;;;;5115805;28;20003;-75
2022/05/30 00:24:45;;;;;;;;;;;13.40;99.90;;;;;;5115647;28;19942;-74
2022/05/30 00:27:12;;;;;;;;;;;13.40;99.90;;;;;;5115675;28;19915;-75
2022/05/30 00:29:39;;;;;;;;;;;13.40;99.90;;;;;;5115359;28;19951;-75
2022/05/30 00:32:07;;;;;;;;;;;13.30;99.90;;;;;;5115292;28;20366;-75
2022/05/30 00:34:34;;;;;;;;;;;13.30;99.90;;;;;;5115361;28;19916;-75
2022/05/30 00:37:01;;;;;;;;;;;13.20;99.90;;;;;;5114094;28;19912;-75
2022/05/30 00:39:28;;;;;;;;;;;13.20;99.90;;;;;;5115418;28;19954;-75
2022/05/30 00:42:06;;;;;;;;;;;13.30;99.90;;;;;;5115202;28;19999;-75
2022/05/30 00:44:33;;;;;;;;;;;13.40;99.90;;;;;;5115223;28;19994;-75
2022/05/30 00:46:59;;;;;;;;;;;13.40;99.90;;;;;;5115069;28;19908;-75
2022/05/30 00:49:26;;;;;;;;;;;13.30;99.90;;;;;;5115130;28;19908;-75
2022/05/30 00:51:55;;;;;;;;;;;13.20;99.90;;;;;;5114875;28;19916;-75
2022/05/30 00:54:23;;;;;;;;;;;13.00;99.90;;;;;;5114993;28;20354;-75
2022/05/30 00:56:50;;;;;;;;;;;12.90;99.90;;;;;;5115034;28;19961;-75
2022/05/30 00:59:17;;;;;;;;;;;12.80;99.90;;;;;;5115042;28;19952;-75
2022/05/30 01:01:44;;;;;;;;;;;12.80;99.90;;;;;;5114540;28;19919;-74
2022/05/30 01:06:57;;;;;;;;;;;12.80;99.90;;;;;;5114256;28;20303;-75
2022/05/30 01:09:27;;;;;;;;;;;12.90;99.90;;;;;;5114709;28;20008;-75
2022/05/30 01:12:01;;;;;;;;;;;12.90;99.90;;;;;;5114486;28;19915;-75
2022/05/30 01:14:32;;;;;;;;;;;12.90;99.90;;;;;;5114621;28;19916;-75
2022/05/30 01:16:59;;;;;;;;;;;12.90;99.90;;;;;;5114555;28;19907;-75
2022/05/30 01:19:26;;;;;;;;;;;12.90;99.90;;;;;;5114629;28;19908;-75
2022/05/30 01:22:06;;;;;;;;;;;12.70;99.90;;;;;;5114215;28;19908;-75
2022/05/30 01:24:36;;;;;;;;;;;12.70;99.90;;;;;;5114749;28;19915;-75
2022/05/30 01:27:14;;;;;;;;;;;12.60;99.90;;;;;;5114556;28;19907;-75
2022/05/30 01:29:44;;;;;;;;;;;12.70;99.90;;;;;;5114172;28;19915;-75
2022/05/30 01:32:16;;;;;;;;;;;12.70;99.90;;;;;;5114409;28;19908;-75
2022/05/30 01:34:43;;;;;;;;;;;12.70;99.90;;;;;;5114350;28;19916;-75
2022/05/30 01:37:10;;;;;;;;;;;12.80;99.90;;;;;;5114213;28;19908;-75
2022/05/30 01:39:36;;;;;;;;;;;12.80;99.90;;;;;;5114222;28;19907;-75
2022/05/30 01:42:03;;;;;;;;;;;12.80;99.90;;;;;;5114277;28;19911;-75
2022/05/30 01:44:30;;;;;;;;;;;12.70;99.90;;;;;;5114270;28;19908;-75
2022/05/30 01:46:57;;;;;;;;;;;12.80;99.90;;;;;;5114119;28;20362;-75
2022/05/30 01:49:24;;;;;;;;;;;12.70;99.90;;;;;;5114134;28;19907;-75
2022/05/30 01:51:54;;;;;;;;;;;12.80;99.90;;;;;;5113690;28;19924;-75
2022/05/30 01:54:20;;;;;;;;;;;12.80;99.90;;;;;;5114220;28;19924;-73
2022/05/30 01:56:48;;;;;;;;;;;12.80;99.90;;;;;;5113473;28;20285;-73
2022/05/30 01:59:15;;;;;;;;;;;12.90;99.90;;;;;;5113833;28;20123;-73
2022/05/30 02:01:44;;;;;;;;;;;12.90;99.90;;;;;;5113832;28;19907;-73
2022/05/30 02:04:12;;;;;;;;;;;13.00;99.90;;;;;;5113895;28;19915;-73
2022/05/30 02:06:38;;;;;;;;;;;13.00;99.90;;;;;;5113898;28;19908;-75
2022/05/30 02:09:05;;;;;;;;;;;13.10;99.90;;;;;;5113828;28;20049;-75
2022/05/30 02:11:32;;;;;;;;;;;13.30;99.90;;;;;;5113595;28;19915;-73
2022/05/30 02:13:59;;;;;;;;;;;13.40;99.90;;;;;;5113882;28;19927;-74
2022/05/30 02:19:10;;;;;;;;;;;13.60;99.90;;;;;;5107901;28;20402;-73
2022/05/30 02:21:37;;;;;;;;;;;13.70;99.90;;;;;;5081791;28;19909;-73
2022/05/30 02:24:06;;;;;;;;;;;13.70;99.90;;;;;;5072988;28;19913;-74
2022/05/30 02:26:33;;;;;;;;;;;13.80;99.90;;;;;;5073040;28;20002;-74
2022/05/30 02:29:00;;;;;;;;;;;13.80;99.90;;;;;;5073122;28;19948;-73
2022/05/30 02:31:28;;;;;;;;;;;13.70;99.90;;;;;;5072961;28;20279;-74
2022/05/30 02:36:40;;;;;;;;;;;14.00;99.90;;;;;;5073296;28;20015;-74
2022/05/30 02:39:07;;;;;;;;;;;14.10;99.90;;;;;;5072980;28;20358;-74
2022/05/30 02:41:34;;;;;;;;;;;14.10;99.90;;;;;;5082991;28;20422;-74
2022/05/30 02:44:01;;;;;;;;;;;14.20;99.90;;;;;;5093195;28;19908;-74
2022/05/30 02:46:27;;;;;;;;;;;14.20;99.90;;;;;;5093091;28;20000;-74
2022/05/30 02:48:54;;;;;;;;;;;14.30;99.90;;;;;;5093045;28;19969;-74
2022/05/30 02:51:21;;;;;;;;;;;14.30;99.90;;;;;;5093110;28;19948;-74
2022/05/30 02:53:47;;;;;;;;;;;14.30;99.90;;;;;;5092674;28;19973;-74
2022/05/30 02:56:15;;;;;;;;;;;14.20;99.90;;;;;;5093148;28;19912;-74
2022/05/30 02:58:42;;;;;;;;;;;14.10;99.90;;;;;;5092869;28;19908;-74
2022/05/30 03:01:10;;;;;;;;;;;14.20;99.90;;;;;;5092805;28;19952;-74
2022/05/30 03:03:36;;;;;;;;;;;14.10;99.90;;;;;;5092833;28;19951;-74
2022/05/30 03:06:03;;;;;;;;;;;14.20;99.90;;;;;;5092966;28;19908;-74
2022/05/30 03:08:30;;;;;;;;;;;14.20;99.90;;;;;;5095401;28;19908;-74
2022/05/30 03:10:57;;;;;;;;;;;14.20;99.90;;;;;;5096866;28;19909;-74
2022/05/30 03:13:23;;;;;;;;;;;14.30;99.90;;;;;;5096546;28;20381;-74
2022/05/30 03:15:50;;;;;;;;;;;14.30;99.90;;;;;;5096374;28;20385;-74
2022/05/30 03:18:17;;;;;;;;;;;14.30;99.90;;;;;;5096590;28;20014;-74
2022/05/30 03:20:43;;;;;;;;;;;14.30;99.90;;;;;;5096437;28;20013;-74
2022/05/30 03:23:10;;;;;;;;;;;14.30;99.90;;;;;;5096463;28;19908;-74
2022/05/30 03:25:37;;;;;;;;;;;14.30;99.90;;;;;;5096297;28;19915;-74
2022/05/30 03:28:03;;;;;;;;;;;14.30;99.90;;;;;;5096321;28;19931;-74
2022/05/30 03:30:36;;;;;;;;;;;14.30;99.90;;;;;;5095999;28;19947;-74
2022/05/30 03:33:06;;;;;;;;;;;14.50;99.90;;;;;;5096242;28;20317;-74
2022/05/30 03:35:33;;;;;;;;;;;14.40;99.90;;;;;;5096082;28;20387;-74
2022/05/30 03:38:00;;;;;;;;;;;14.40;99.90;;;;;;5096257;28;20347;-74
2022/05/30 03:40:26;;;;;;;;;;;14.50;99.90;;;;;;5096277;28;19915;-74
2022/05/30 03:42:53;;;;;;;;;;;14.50;99.90;;;;;;5096011;28;19939;-74
2022/05/30 03:45:20;;;;;;;;;;;14.60;99.90;;;;;;5128565;27;20011;-74
2022/05/30 03:47:47;;;;;;;;;;;14.60;99.90;;;;;;5095733;28;19943;-74
2022/05/30 03:50:18;;;;;;;;;;;14.70;99.90;;;;;;5095858;28;20007;-74
2022/05/30 03:52:45;;;;;;;;;;;14.70;99.90;;;;;;5095626;28;19920;-74
2022/05/30 03:55:14;;;;;;;;;;;14.70;99.90;;;;;;5095745;28;20282;-74
2022/05/30 03:57:41;;;;;;;;;;;14.70;99.90;;;;;;5095572;28;19915;-74
2022/05/30 04:00:09;;;;;;;;;;;14.70;99.90;;;;;;5095559;28;20315;-74
2022/05/30 04:02:36;;;;;;;;;;;14.70;99.90;;;;;;5095786;28;19919;-74
2022/05/30 04:05:03;;;;;;;;;;;14.70;99.90;;;;;;5095743;28;20317;-74
2022/05/30 04:07:29;;;;;;;;;;;14.70;99.90;;;;;;5095607;28;20262;-74
2022/05/30 04:09:56;;;;;;;;;;;14.80;99.90;;;;;;5095648;28;19908;-74
2022/05/30 04:12:23;;;;;;;;;;;14.80;99.90;;;;;;5095447;28;19908;-74
2022/05/30 04:14:53;;;;;;;;;;;14.80;99.90;;;;;;5095216;28;19970;-74
2022/05/30 04:17:20;;;;;;;;;;;14.90;99.90;;;;;;5095419;28;19916;-74
2022/05/30 04:19:47;;;;;;;;;;;14.80;99.90;;;;;;5094538;28;20269;-74
2022/05/30 04:22:14;;;;;;;;;;;14.80;99.90;;;;;;5095469;28;19965;-74
2022/05/30 04:24:41;;;;;;;;;;;14.80;99.90;;;;;;5095360;28;19908;-74
2022/05/30 04:27:07;;;;;;;;;;;14.80;99.90;;;;;;5095238;28;19922;-74
2022/05/30 04:29:34;;;;;;;;;;;14.80;99.90;;;;;;5094842;28;19914;-74
2022/05/30 04:32:01;;;;;;;;;;;14.80;99.90;;;;;;5095208;28;19908;-74
2022/05/30 04:34:28;;;;;;;;;;;14.80;99.90;;;;;;5095177;28;20358;-74
2022/05/30 04:36:54;;;;;;;;;;;14.80;99.90;;;;;;5094762;28;19908;-74
2022/05/30 04:39:21;;;;;;;;;;;14.80;99.90;;;;;;5095023;28;19960;-74
2022/05/30 04:41:48;;;;;;;;;;;14.80;99.90;;;;;;5094631;28;20303;-74
2022/05/30 04:44:15;;;;;;;;;;;14.80;99.90;;;;;;5094693;28;19915;-75
2022/05/30 04:46:41;;;;;;;;;;;14.80;99.90;;;;;;5094879;28;19915;-74
2022/05/30 04:49:08;;;;;;;;;;;14.80;99.90;;;;;;5094850;28;19915;-74
2022/05/30 04:51:35;;;;;;;;;;;14.80;99.90;;;;;;5094262;28;19912;-74
2022/05/30 04:54:01;;;;;;;;;;;14.70;99.90;;;;;;5094810;28;19923;-74
2022/05/30 04:56:28;;;;;;;;;;;14.70;99.90;;;;;;5094622;28;19908;-74
2022/05/30 04:58:54;;;;;;;;;;;14.70;99.90;;;;;;5094492;28;19935;-75
2022/05/30 05:01:21;;;;;;;;;;;14.60;99.90;;;;;;5094678;28;20366;-76
2022/05/30 05:03:48;;;;;;;;;;;14.60;99.90;;;;;;5094275;28;19915;-76
2022/05/30 05:06:16;;;;;;;;;;;14.60;99.90;;;;;;5094454;28;19909;-75
2022/05/30 05:08:48;;;;;;;;;;;14.60;99.90;;;;;;5094241;28;19908;-76
2022/05/30 05:11:18;;;;;;;;;;;14.70;99.90;;;;;;5094291;28;20000;-75
2022/05/30 05:13:45;;;;;;;;;;;14.70;99.90;;;;;;5093952;28;20290;-75
2022/05/30 05:16:12;;;;;;;;;;;14.60;99.90;;;;;;5094275;28;19915;-76
2022/05/30 05:18:39;;;;;;;;;;;14.40;99.90;;;;;;5092958;28;19908;-76
2022/05/30 05:21:06;;;;;;;;;;;14.20;99.90;;;;;;5094208;28;19966;-76
2022/05/30 05:23:33;;;;;;;;;;;14.00;99.90;;;;;;5093929;28;19908;-75
2022/05/30 05:26:02;;;;;;;;;;;13.80;99.90;;;;;;5094211;28;19995;-76
2022/05/30 05:28:29;;;;;;;;;;;13.70;99.90;;;;;;5093988;28;19955;-76
2022/05/30 05:30:55;;;;;;;;;;;13.50;99.90;;;;;;5093257;28;20282;-75
2022/05/30 05:33:22;;;;;;;;;;;13.50;99.90;;;;;;5093958;28;19916;-75
2022/05/30 05:35:49;;;;;;;;;;;13.50;99.90;;;;;;5093674;28;19958;-76
2022/05/30 05:38:15;;;;;;;;;;;13.50;99.90;;;;;;5093949;28;19953;-76
2022/05/30 05:40:43;;;;;;;;;;;13.50;99.90;;;;;;5093830;28;19909;-76
2022/05/30 05:43:10;;;;;;;;;;;13.50;99.90;;;;;;5093935;28;20310;-76
2022/05/30 05:45:37;;;;;;;;;;;13.50;99.90;;;;;;5093481;28;19950;-76
2022/05/30 05:48:04;;;;;;;;;;;13.40;99.90;;;;;;5093863;28;20002;-76
2022/05/30 05:50:31;;;;;;;;;;;13.40;99.90;;;;;;5093697;28;20275;-76
2022/05/30 05:52:57;;;;;;;;;;;13.40;99.90;;;;;;5093633;28;19920;-76
2022/05/30 05:55:24;;;;;;;;;;;13.30;99.90;;;;;;5093649;28;19927;-75
2022/05/30 05:57:51;;;;;;;;;;;13.30;99.90;;;;;;5093318;28;19946;-75
2022/05/30 06:00:18;;;;;;;;;;;13.20;99.90;;;;;;5093457;28;19908;-75
2022/05/30 06:02:44;;;;;;;;;;;13.20;99.90;;;;;;5093533;28;19925;-75
2022/05/30 06:05:11;;;;;;;;;;;13.20;99.90;;;;;;5093358;28;19915;-76
2022/05/30 06:07:39;;;;;;;;;;;13.20;99.90;;;;;;5093302;28;19914;-75
2022/05/30 06:10:06;;;;;;;;;;;13.20;99.90;;;;;;5093526;28;19911;-76
2022/05/30 06:12:37;;;;;;;;;;;13.20;99.90;;;;;;5093412;28;19950;-75
2022/05/30 06:15:05;;;;;;;;;;;13.20;99.90;;;;;;5093047;28;20331;-75
2022/05/30 06:17:34;;;;;;;;;;;13.20;99.90;;;;;;5093107;28;19908;-75
2022/05/30 06:20:01;;;;;;;;;;;13.20;99.90;;;;;;5093247;28;19930;-76
2022/05/30 06:22:28;;;;;;;;;;;13.10;99.90;;;;;;5093255;28;19908;-76
2022/05/30 06:24:54;;;;;;;;;;;13.10;99.90;;;;;;5093382;28;19995;-76
2022/05/30 06:27:21;;;;;;;;;;;13.10;99.90;;;;;;5093280;28;20290;-76
2022/05/30 06:29:49;;;;;;;;;;;13.10;99.90;;;;;;5092924;28;20373;-76
2022/05/30 06:32:15;;;;;;;;;;;13.10;99.90;;;;;;5093043;28;20278;-76
2022/05/30 06:34:42;;;;;;;;;;;13.10;99.90;;;;;;5093131;28;19923;-75
2022/05/30 06:37:10;;;;;;;;;;;13.00;99.90;;;;;;5093241;28;19915;-76
2022/05/30 06:39:38;;;;;;;;;;;13.00;99.90;;;;;;5092939;28;19908;-75
2022/05/30 06:42:08;;;;;;;;;;;13.00;99.90;;;;;;5093163;28;20385;-75
2022/05/30 06:44:36;;;;;;;;;;;13.00;99.90;;;;;;5097149;28;19921;-75
2022/05/30 06:47:03;;;;;;;;;;;13.00;99.90;;;;;;5097198;28;19930;-76
2022/05/30 06:49:30;;;;;;;;;;;13.00;99.90;;;;;;5097085;28;20304;-75
2022/05/30 06:51:57;;;;;;;;;;;13.00;99.90;;;;;;5094728;28;19963;-75
2022/05/30 06:54:24;;;;;;;;;;;13.10;99.90;;;;;;5094853;28;19996;-75
2022/05/30 06:59:40;;;;;;;;;;;13.10;99.90;;;;;;5083780;28;20000;-75
2022/05/30 07:02:07;;;;;;;;;;;13.20;99.90;;;;;;5094730;28;20367;-75
2022/05/30 07:04:34;;;;;;;;;;;13.20;99.90;;;;;;5094384;28;20351;-77
2022/05/30 07:07:05;;;;;;;;;;;12.70;99.90;;;;;;5094890;28;19962;-75
2022/05/30 07:09:32;;;;;;;;;;;11.60;99.90;;;;;;5095496;28;19915;-84
2022/05/30 07:11:59;;;;;;;;;;;11.00;99.90;;;;;;5095188;28;19908;-80
2022/05/30 07:14:25;;;;;;;;;;;10.70;99.90;;;;;;5094697;28;20356;-82
2022/05/30 07:16:52;;;;;;;;;;;10.50;99.90;;;;;;5094766;28;20317;-80
2022/05/30 07:19:19;;;;;;;;;;;10.50;99.90;;;;;;5094210;28;19947;-80
2022/05/30 07:21:46;;;;;;;;;;;10.60;99.90;;;;;;5094299;28;19919;-75
2022/05/30 07:24:13;;;;;;;;;;;10.50;99.90;;;;;;5094161;28;19908;-81
2022/05/30 07:26:40;;;;;;;;;;;10.60;99.90;;;;;;5093073;28;19908;-79
2022/05/30 07:29:06;;;;;;;;;;;10.70;99.90;;;;;;5094324;28;20379;-80
2022/05/30 07:31:33;;;;;;;;;;;10.80;99.90;;;;;;5093691;28;19908;-75
2022/05/30 07:34:00;;;;;;;;;;;10.80;99.90;;;;;;5094234;28;20431;-78
2022/05/30 07:36:28;;;;;;;;;;;10.80;99.90;;;;;;5094227;28;19912;-78
2022/05/30 07:38:55;;;;;;;;;;;10.80;99.90;;;;;;5094043;28;19908;-80
2022/05/30 07:41:23;;;;;;;;;;;10.90;99.90;;;;;;5094446;28;20053;-79
2022/05/30 07:43:50;;;;;;;;;;;10.90;99.90;;;;;;5093532;28;19908;-79
2022/05/30 07:46:18;;;;;;;;;;;10.90;99.90;;;;;;5094208;28;19908;-81
2022/05/30 07:48:45;;;;;;;;;;;10.80;99.90;;;;;;5094158;28;20426;-75
2022/05/30 07:51:12;;;;;;;;;;;10.90;99.90;;;;;;5094038;28;19908;-78
2022/05/30 07:53:40;;;;;;;;;;;10.90;99.90;;;;;;5093059;28;19924;-75
2022/05/30 07:56:08;;;;;;;;;;;10.80;99.90;;;;;;5093313;28;20329;-81
2022/05/30 07:58:36;;;;;;;;;;;10.80;99.90;;;;;;5093631;28;19908;-81
2022/05/30 08:01:04;;;;;;;;;;;10.90;99.90;;;;;;5093864;28;19912;-77
2022/05/30 08:03:30;;;;;;;;;;;10.80;99.90;;;;;;5093519;28;19919;-75
2022/05/30 08:06:04;;;;;;;;;;;10.90;99.90;;;;;;5093813;28;19916;-78
2022/05/30 08:08:31;;;;;;;;;;;10.90;99.90;;;;;;5093923;28;19916;-76
2022/05/30 08:10:58;;;;;;;;;;;11.00;99.90;;;;;;5093242;28;19908;-78
2022/05/30 08:13:24;;;;;;;;;;;11.00;99.90;;;;;;5126428;27;20307;-76
2022/05/30 08:15:51;;;;;;;;;;;11.00;99.90;;;;;;5093436;28;19960;-76
2022/05/30 08:18:18;;;;;;;;;;;10.90;99.90;;;;;;5093759;28;19909;-77
2022/05/30 08:20:45;;;;;;;;;;;11.00;99.90;;;;;;5093484;28;20281;-75
2022/05/30 08:23:11;;;;;;;;;;;11.00;99.90;;;;;;5091930;28;19915;-77
2022/05/30 08:25:39;;;;;;;;;;;11.10;99.90;;;;;;5073449;28;19909;-75
2022/05/30 08:28:05;;;;;;;;;;;11.10;99.90;;;;;;5072962;28;19920;-76
2022/05/30 08:30:32;;;;;;;;;;;11.10;99.90;;;;;;5072944;28;19909;-77
2022/05/30 08:32:59;;;;;;;;;;;11.20;99.90;;;;;;5072693;28;20287;-75
2022/05/30 08:35:25;;;;;;;;;;;11.10;99.90;;;;;;5073145;28;19916;-79
2022/05/30 08:37:57;;;;;;;;;;;11.10;99.90;;;;;;5071893;28;20283;-78
2022/05/30 08:43:37;;;;;;;;;;;10.90;99.90;;;;;;5072572;28;19919;-80
2022/05/30 08:46:07;;;;;;;;;;;10.90;99.90;;;;;;5072776;28;19912;-82
2022/05/30 08:48:46;;;;;;;;;;;10.90;99.90;;;;;;5072707;28;19915;-79
2022/05/30 08:51:18;;;;;;;;;;;11.00;99.90;;;;;;5072360;28;20008;-75
2022/05/30 08:54:13;;;;;;;;;;;11.10;99.90;;;;;;5072127;28;19964;-75
2022/05/30 08:56:42;;;;;;;;;;;11.00;99.90;;;;;;5052628;28;19923;-76
2022/05/30 08:59:08;;;;;;;;;;;11.00;99.90;;;;;;5072419;28;19916;-78
2022/05/30 09:01:38;;;;;;;;;;;11.00;99.90;;;;;;5104752;28;19916;-76
2022/05/30 09:04:11;;;;;;;;;;;11.00;99.90;;;;;;5072582;28;19955;-77
2022/05/30 09:06:58;;;;;;;;;;;10.80;99.90;;;;;;5073342;28;19914;-80
2022/05/30 09:09:29;;;;;;;;;;;10.80;99.90;;;;;;5074034;28;19962;-81
2022/05/30 09:12:01;;;;;;;;;;;10.80;99.90;;;;;;5074481;28;20373;-79
2022/05/30 09:14:39;;;;;;;;;;;10.70;99.90;;;;;;5074030;28;20331;-78
2022/05/30 09:17:09;;;;;;;;;;;10.70;99.90;;;;;;5075440;28;19909;-81
2022/05/30 09:19:36;;;;;;;;;;;10.70;99.90;;;;;;5074299;28;20267;-80
2022/05/30 09:22:04;;;;;;;;;;;10.70;99.90;;;;;;5073758;28;19966;-80
2022/05/30 09:24:33;;;;;;;;;;;10.70;99.90;;;;;;5074172;28;20355;-80
2022/05/30 09:27:01;;;;;;;;;;;10.70;99.90;;;;;;5074034;28;20374;-80
2022/05/30 09:29:47;;;;;;;;;;;10.70;99.90;;;;;;5073996;28;19966;-80
2022/05/30 09:32:14;;;;;;;;;;;10.60;99.90;;;;;;5069985;28;19915;-83
2022/05/30 09:34:46;;;;;;;;;;;10.70;99.90;;;;;;5073796;28;19948;-81
2022/05/30 09:37:25;;;;;;;;;;;10.70;99.90;;;;;;5073429;28;20389;-81
2022/05/30 09:39:52;;;;;;;;;;;10.70;99.90;;;;;;5073623;28;19908;-80
2022/05/30 09:42:26;;;;;;;;;;;10.70;99.90;;;;;;5073649;28;19920;-80
2022/05/30 09:44:55;;;;;;;;;;;10.70;99.90;;;;;;5073723;28;19912;-80
2022/05/30 09:47:22;;;;;;;;;;;10.70;99.90;;;;;;5073589;28;19996;-80
2022/05/30 09:49:53;;;;;;;;;;;10.70;99.90;;;;;;5073489;28;19944;-80
2022/05/30 09:52:26;;;;;;;;;;;10.80;99.90;;;;;;5072956;28;19927;-80
2022/05/30 09:54:54;;;;;;;;;;;10.80;99.90;;;;;;5073513;28;19973;-78
2022/05/30 09:57:24;;;;;;;;;;;10.80;99.90;;;;;;5073454;28;19913;-79
2022/05/30 09:59:52;;;;;;;;;;;10.80;99.90;;;;;;5072910;28;20004;-80
2022/05/30 10:02:22;;;;;;;;;;;10.90;99.90;;;;;;5073380;28;19912;-80
2022/05/30 10:05:00;;;;;;;;;;;10.90;99.90;;;;;;5073475;28;19935;-80
2022/05/30 10:07:28;;;;;;;;;;;10.90;99.90;;;;;;5073610;28;20277;-79
2022/05/30 10:10:00;;;;;;;;;;;10.90;99.90;;;;;;5073230;28;19909;-80
2022/05/30 10:12:33;;;;;;;;;;;11.00;99.90;;;;;;5073367;28;20366;-80
2022/05/30 10:14:59;;;;;;;;;;;11.00;99.90;;;;;;5073413;28;19962;-80
2022/05/30 10:17:33;;;;;;;;;;;11.00;99.90;;;;;;5073117;28;19948;-79
2022/05/30 10:20:02;;;;;;;;;;;11.00;99.90;;;;;;5073423;28;19948;-81
2022/05/30 10:28:33;;;;;;;;;;;11.00;99.90;;;;;;5071352;28;20058;-79
2022/05/30 10:31:07;;;;;;;;;;;11.10;99.90;;;;;;5103803;28;20274;-79
2022/05/30 10:33:48;;;;;;;;;;;11.10;99.90;;;;;;5070869;28;19908;-80
2022/05/30 10:36:15;;;;;;;;;;;11.10;99.90;;;;;;5071181;28;19962;-81
2022/05/30 10:38:44;;;;;;;;;;;11.00;99.90;;;;;;5071129;28;19955;-80
2022/05/30 10:41:11;;;;;;;;;;;11.00;99.90;;;;;;5071038;28;19916;-77
2022/05/30 10:43:41;;;;;;;;;;;11.00;99.90;;;;;;5070748;28;19909;-79
2022/05/30 10:46:15;;;;;;;;;;;11.00;99.90;;;;;;5071097;28;19909;-81
2022/05/30 10:48:48;;;;;;;;;;;10.90;99.90;;;;;;5071046;28;19965;-80
2022/05/30 10:51:22;;;;;;;;;;;10.90;99.90;;;;;;5071105;28;19965;-79
2022/05/30 10:53:55;;;;;;;;;;;10.90;99.90;;;;;;5050325;28;19928;-79
2022/05/30 10:56:27;;;;;;;;;;;10.90;99.90;;;;;;5051102;28;19909;-79
2022/05/30 10:59:12;;;;;;;;;;;11.00;99.90;;;;;;5050747;28;19913;-79
2022/05/30 11:01:44;;;;;;;;;;;10.90;99.90;;;;;;5050769;28;20063;-79
2022/05/30 11:04:11;;;;;;;;;;;10.90;99.90;;;;;;5050905;28;20310;-80
2022/05/30 11:06:39;;;;;;;;;;;11.00;99.90;;;;;;5050426;28;19909;-79
2022/05/30 11:09:10;;;;;;;;;;;11.00;99.90;;;;;;5035230;28;19917;-76
2022/05/30 11:11:57;;;;;;;;;;;11.00;99.90;;;;;;5050262;28;19913;-79
2022/05/30 11:14:42;;;;;;;;;;;11.00;99.90;;;;;;5043125;28;20351;-79
2022/05/30 11:17:14;;;;;;;;;;;10.90;99.90;;;;;;5050577;28;19952;-77
2022/05/30 11:19:43;;;;;;;;;;;10.90;99.90;;;;;;5050280;28;19909;-78
2022/05/30 11:22:19;;;;;;;;;;;10.90;99.90;;;;;;5050227;28;20000;-76
2022/05/30 11:24:48;;;;;;;;;;;10.90;99.90;;;;;;5050017;28;19917;-77
2022/05/30 11:27:15;;;;;;;;;;;10.90;99.90;;;;;;5050397;28;19982;-76
2022/05/30 11:29:51;;;;;;;;;;;10.90;99.90;;;;;;5051391;28;20335;-77
2022/05/30 11:32:35;;;;;;;;;;;10.90;99.90;;;;;;5053880;28;19936;-78
2022/05/30 11:35:37;;;;;;;;;;;10.80;99.90;;;;;;5053615;28;20344;-79
2022/05/30 11:38:22;;;;;;;;;;;10.80;99.90;;;;;;5011195;28;19956;-78
2022/05/30 11:40:59;;;;;;;;;;;10.90;99.90;;;;;;5050520;28;19920;-77
2022/05/30 11:43:44;;;;;;;;;;;10.90;99.90;;;;;;5053821;28;19913;-75
2022/05/30 11:46:10;;;;;;;;;;;10.90;99.90;;;;;;5053761;28;19909;-76
2022/05/30 11:48:37;;;;;;;;;;;10.90;99.90;;;;;;5053753;28;20312;-76
2022/05/30 11:51:30;;;;;;;;;;;10.90;99.90;;;;;;5053618;28;20021;-75
2022/05/30 11:53:56;;;;;;;;;;;10.90;99.90;;;;;;5058842;28;19948;-75
2022/05/30 11:56:31;;;;;;;;;;;10.90;99.90;;;;;;5075407;28;19915;-75
2022/05/30 11:59:06;;;;;;;;;;;10.90;99.90;;;;;;5057729;28;19909;-75
2022/05/30 12:01:35;;;;;;;;;;;11.00;99.90;;;;;;5075405;28;20363;-78
2022/05/30 12:04:25;;;;;;;;;;;10.90;99.90;;;;;;5075421;28;20424;-75
2022/05/30 12:06:55;;;;;;;;;;;11.00;99.90;;;;;;5075571;28;19908;-77
2022/05/30 12:09:27;;;;;;;;;;;11.10;99.90;;;;;;5074887;28;19915;-76
2022/05/30 12:12:03;;;;;;;;;;;11.00;99.90;;;;;;5075064;28;19927;-75
2022/05/30 12:14:44;;;;;;;;;;;11.10;99.90;;;;;;5073635;28;20385;-76
2022/05/30 12:17:29;;;;;;;;;;;11.20;99.90;;;;;;5073366;28;19916;-74
2022/05/30 12:25:34;;;;;;;;;;;11.30;99.90;;;;;;5073290;28;19915;-76
2022/05/30 12:28:06;;;;;;;;;;;11.30;99.90;;;;;;5073109;28;19913;-75
2022/05/30 12:30:36;;;;;;;;;;;11.30;99.90;;;;;;5073017;28;19908;-77
2022/05/30 12:33:22;;;;;;;;;;;11.30;99.90;;;;;;5072987;28;20229;-76
2022/05/30 12:36:08;;;;;;;;;;;11.30;99.90;;;;;;5072586;28;20375;-76
2022/05/30 12:38:51;;;;;;;;;;;11.40;99.90;;;;;;5072045;28;19909;-76
2022/05/30 12:41:30;;;;;;;;;;;11.40;99.90;;;;;;5071898;28;19909;-75
2022/05/30 12:43:57;;;;;;;;;;;11.40;99.90;;;;;;5072639;28;19927;-75
2022/05/30 12:46:48;;;;;;;;;;;11.40;99.90;;;;;;5072550;28;19909;-75
2022/05/30 12:49:34;;;;;;;;;;;11.40;99.90;;;;;;5088099;28;19957;-75
2022/05/30 12:52:03;;;;;;;;;;;11.40;99.90;;;;;;5072420;28;19921;-75
2022/05/30 12:54:37;;;;;;;;;;;11.40;99.90;;;;;;5071512;28;20355;-74
2022/05/30 12:57:06;;;;;;;;;;;11.40;99.90;;;;;;5072399;28;19966;-75
2022/05/30 12:59:34;;;;;;;;;;;11.40;99.90;;;;;;5072220;28;19915;-75
2022/05/30 13:02:04;;;;;;;;;;;11.50;99.90;;;;;;5072429;28;19978;-76
2022/05/30 13:04:35;;;;;;;;;;;11.60;99.90;;;;;;5072041;28;19909;-75
2022/05/30 13:07:04;;;;;;;;;;;11.60;99.90;;;;;;5072073;28;19963;-75
2022/05/30 13:09:36;;;;;;;;;;;11.60;99.90;;;;;;5072154;28;19908;-75
2022/05/30 13:12:12;;;;;;;;;;;11.60;99.90;;;;;;5072160;28;19909;-75
2022/05/30 13:14:39;;;;;;;;;;;11.60;99.90;;;;;;5072156;28;19920;-77
2022/05/30 13:17:24;;;;;;;;;;;11.60;99.90;;;;;;5072072;28;19919;-77
2022/05/30 13:19:51;;;;;;;;;;;11.60;99.90;;;;;;5071489;28;19909;-75
2022/05/30 13:22:36;;;;;;;;;;;11.70;99.90;;;;;;5072098;28;19920;-75
2022/05/30 13:25:05;;;;;;;;;;;11.70;99.90;;;;;;5072073;28;20371;-76
2022/05/30 13:27:32;;;;;;;;;;;11.70;99.90;;;;;;5071708;28;19908;-75
2022/05/30 13:30:03;;;;;;;;;;;11.70;99.90;;;;;;5071857;28;19918;-75
2022/05/30 13:32:31;;;;;;;;;;;11.80;99.90;;;;;;5071490;28;19909;-76
2022/05/30 13:34:58;;;;;;;;;;;11.70;99.90;;;;;;5071640;28;20371;-75
2022/05/30 13:37:29;;;;;;;;;;;11.70;99.90;;;;;;5071783;28;20287;-75
2022/05/30 13:39:57;;;;;;;;;;;11.70;99.90;;;;;;5071922;28;19917;-76
2022/05/30 13:42:31;;;;;;;;;;;11.70;99.90;;;;;;5071609;28;19908;-76
2022/05/30 13:45:01;;;;;;;;;;;11.60;99.90;;;;;;5071806;28;19940;-76
2022/05/30 13:47:28;;;;;;;;;;;11.60;99.90;;;;;;5071115;28;19916;-75
2022/05/30 13:49:56;;;;;;;;;;;11.60;99.90;;;;;;5071468;28;19909;-75
2022/05/30 13:52:23;;;;;;;;;;;11.60;99.90;;;;;;5070749;28;19928;-76
2022/05/30 13:54:53;;;;;;;;;;;11.70;99.90;;;;;;5071789;28;19917;-75
2022/05/30 13:57:20;;;;;;;;;;;11.60;99.90;;;;;;5071499;28;20395;-75
2022/05/30 13:59:50;;;;;;;;;;;11.60;99.90;;;;;;5071097;28;19909;-75
2022/05/30 14:02:19;;;;;;;;;;;11.60;99.90;;;;;;5071437;28;20011;-76
2022/05/30 14:04:47;;;;;;;;;;;11.60;99.90;;;;;;5071432;28;20341;-75
2022/05/30 14:07:21;;;;;;;;;;;11.60;99.90;;;;;;5071389;28;19909;-75
2022/05/30 14:09:49;;;;;;;;;;;11.60;99.90;;;;;;5071296;28;19912;-76
2022/05/30 14:12:18;;;;;;;;;;;11.60;99.90;;;;;;5070621;28;19912;-76
2022/05/30 14:14:45;;;;;;;;;;;11.60;99.90;;;;;;5070996;28;20282;-76
2022/05/30 14:17:14;;;;;;;;;;;11.60;99.90;;;;;;5071337;28;19912;-75
2022/05/30 14:19:41;;;;;;;;;;;11.60;99.90;;;;;;5071123;28;20248;-75
2022/05/30 14:22:10;;;;;;;;;;;11.60;99.90;;;;;;5071139;28;20292;-75
2022/05/30 14:24:38;;;;;;;;;;;11.60;99.90;;;;;;5070837;28;19909;-75
2022/05/30 14:27:16;;;;;;;;;;;11.60;99.90;;;;;;5070987;28;20007;-75
2022/05/30 14:29:47;;;;;;;;;;;11.60;99.90;;;;;;5071066;28;20389;-75
2022/05/30 14:32:14;;;;;;;;;;;11.60;99.90;;;;;;5071161;28;19944;-76
2022/05/30 14:34:42;;;;;;;;;;;11.60;99.90;;;;;;5071077;28;19970;-76
2022/05/30 14:37:28;;;;;;;;;;;11.50;99.90;;;;;;5071223;28;19954;-75
2022/05/30 14:39:56;;;;;;;;;;;11.50;99.90;;;;;;5070935;28;19944;-76
2022/05/30 14:42:25;;;;;;;;;;;11.50;99.90;;;;;;5069643;28;19995;-75
2022/05/30 14:44:57;;;;;;;;;;;11.50;99.90;;;;;;5071252;28;19991;-75
2022/05/30 14:47:29;;;;;;;;;;;11.60;99.90;;;;;;5070994;28;19916;-75
2022/05/30 14:50:06;;;;;;;;;;;11.50;99.90;;;;;;5070958;28;19919;-75
2022/05/30 14:52:37;;;;;;;;;;;11.60;99.90;;;;;;5070460;28;19924;-75
2022/05/30 14:55:06;;;;;;;;;;;11.60;99.90;;;;;;5070923;28;19916;-76